• Join FlightAware (Why Join?)
  • Login
  • US Flag 
01:03AM EDT


 

Airport Tracker/Info


-or-


 

Live Flight TrackerFlight Track Log ✈ DAL3759 ✈ 28-Apr-2013 ✈ KATL - KTYS

Flight Track Log - Related Links

Times and Time Zones

All times are in EDT time to prevent confusion due to time zone crossing. See the DAL3759 flight status page for this flight to view local times or setup timezone preferences in your user account.

Time Position Orientation Groundspeed Altitude Reporting Facility
EDT Latitude Longitude Course Direction KTS MPH feet Rate Location/Type
10:09AM 33.6497 -84.3708 343° North 366 421 2,500  Level Atlanta Center
10:10AM 33.6667 -84.3000 74° East 269 310 3,100 1,620 Climbing Atlanta TRACON
10:11AM 33.6833 -84.2000 79° East 309 356 5,600 2,520 Climbing Atlanta TRACON
10:12AM 33.8083 -84.1667 North  Level FlightAware Approximate
10:12AM 33.7667 -84.1833 North 298 343 8,500  Level Atlanta TRACON
10:13AM 33.8793 -84.2126 320° Northwest  Level FlightAware Approximate
10:13AM 33.8500 -84.1833 360° North 304 350 11,000  Level Atlanta TRACON
10:14AM 33.9472 -84.2719 343° North  Level FlightAware Approximate
10:15AM 34.0300 -84.2469 344° North 318 366 13,100  Level Atlanta Center
10:16AM 34.1217 -84.2922 338° Northwest 337 388 13,000 -60 Descending Atlanta Center
10:17AM 34.2175 -84.3403 337° Northwest 359 413 13,000  Level Atlanta Center
10:18AM 34.3239 -84.3431 359° North 378 435 13,000 -60 Level Atlanta Center
10:19AM 34.4306 -84.3158 12° North 373 429 12,900 -60 Descending Atlanta Center
10:20AM 34.5392 -84.2933 10° North 392 451 12,900  Level Atlanta Center
10:21AM 34.6414 -84.2686 11° North 380 437 12,900  Level Atlanta Center
10:22AM 34.7375 -84.2461 11° North 366 421 12,900  Level Atlanta Center
10:23AM 34.8397 -84.2211 11° North 360 414 12,900  Level Atlanta Center
10:24AM 34.9400 -84.2008 North 360 414 12,900 -300 Level Atlanta Center
10:25AM 35.0339 -84.1783 11° North 365 420 12,400 -900 Descending Atlanta Center
10:26AM 35.1342 -84.1556 11° North 371 427 11,200 -720 Descending Atlanta Center
10:27AM 35.2322 -84.1328 11° North 371 427 11,000 -120 Descending Atlanta Center
10:28AM 35.3322 -84.1075 12° North 371 427 11,000 -300 Level Atlanta Center
10:29AM 35.4200 -84.0872 11° North 347 399 10,400 -840 Descending Atlanta Center
10:30AM 35.4992 -84.1050 350° North 292 336 9,400 -1,500 Descending Atlanta Center
10:31AM 35.5681 -84.1358 340° North 276 318 7,400 -2,040 Descending Atlanta Center
10:32AM 35.6264 -84.1792 329° Northwest 247 284 5,400 -1,500 Descending Atlanta Center
10:33AM 35.6869 -84.1539 19° North 232 267 4,500 -1,140 Descending Atlanta Center
10:34AM 35.7267 -84.1028 46° Northeast 194 223 3,200 -1,320 Descending Atlanta Center